Malibu, CA

4:06 AM PDT on August 31, 2014 (GMT -0700)
APRSWXNET Malibu CA US | Change Station
CLOSE
Current Station
Personal Weather Station
Location: Malibu, CA
Elevation: 731 ft
Nearby Weather Stations

Elev 731 ft 34.04 °N, 118.83 °W | Updated 44 minutes ago

Clear
Clear
67.0 °F
Feels Like 67.0 °F
N
0.0
Wind Variable Wind from North
Gusts 0.0 mph

Today
High -- | Low -- °F
--% Chance of Precip.
Yesterday
High -- | Low -- °F
Precip. -- in
6:28 AM 7:22 PM
Waxing Crescent, 30% visible
Pressure 29.78 in
Visibility 9.0 miles
Clouds Clear
Dew Point 58.0 °F
Humidity 73%
Rainfall 0.00 in
Snow Depth Not available.
UV 0 out of 12
Pollen 8.20 out of 12
Ozone Good
Flu Activity Not available.
METAR KNTD 311056Z AUTO 00000KT 9SM CLR 19/16 A2978 RMK AO2 SLP085 T01890156 $

More Conditions Fewer Conditions

Pressure 29.78 in
Visibility 9.0 miles
Clouds Clear
Dew Point 58.0 °F
Humidity 73%
Rainfall 0.00 in
Snow Depth Not available.
UV 0 out of 12
Pollen 8.20 out of 12
Ozone Good
Flu Activity Not available.
METAR KNTD 311056Z AUTO 00000KT 9SM CLR 19/16 A2978 RMK AO2 SLP085 T01890156 $

More Conditions Fewer Conditions

10-Day Weather Forecast

Almanac

Astronomy

Aug. 31, 2014 Rise Set
Actual Time 6:28 AM PDT 7:22 PM PDT
Civil Twilight 6:02 AM PDT 7:47 PM PDT
Nautical Twilight 5:32 AM PDT 8:18 PM PDT
Astronomical Twilight 5:01 AM PDT 8:49 PM PDT
Moon 12:02 PM PDT 10:58 PM PDT
Length of Visible Light 13h 45m
Length of Day
12h 54m
Tomorrow will be 2m 2s shorter.
Waxing Crescent, 30% of the Moon is Illuminated
Today
Waxing Crescent
Sep 2
First Quarter
Sep 8
Full
Sep 15
Last Quarter
Sep 24
New

Today's Extremes

State Highs State Lows

Community

WunderPhotos

Upload Photos

1,748,837 photos uploaded!

Nearby

Air Quality

  Air Quality AQ Index Pollutant
Current Good
OZONE
Sunday Moderate
OZONE
Sunday Good
PM10
Sunday Good
CO
Sunday Good
NO2

Snow Depth

Station Depth Elevation
Leavitt Lake 1 in 9400 ft
Leavitt Meadows 1 in 7200 ft
Summit Meadow 1 in 9122 ft
Blue Lakes 0 in 8000 ft
Monitor Pass 0 in 8350 ft

Earthquake Activity

City Distance Mag. Time & Date
Malibu, California 26 miles 2.5 8:11 AM PDT
2014-08-30
Minimum magnitude displayed is 2.5.

Coastal Water Temperatures

Place Temperature
Santa Monica Pier 71.1 °F
Los Angeles, CA 66.9 °F
La Jolla, CA 66.0 °F

Nearby Weather Stations